sensor_id;sensor_type;location;lat;lon;timestamp;temperature;humidity
53645;DHT22;39547;45.554;12.068;2022-10-22T00:02:23;17.10;83.10
53645;DHT22;39547;45.554;12.068;2022-10-22T00:08:24;17.10;83.10
53645;DHT22;39547;45.554;12.068;2022-10-22T00:14:26;17.10;83.20
53645;DHT22;39547;45.554;12.068;2022-10-22T00:20:27;17.10;83.20
53645;DHT22;39547;45.554;12.068;2022-10-22T00:26:29;17.10;83.20
53645;DHT22;39547;45.554;12.068;2022-10-22T00:32:30;17.00;83.20
53645;DHT22;39547;45.554;12.068;2022-10-22T00:38:32;17.10;83.30
53645;DHT22;39547;45.554;12.068;2022-10-22T00:45:04;17.10;83.40
53645;DHT22;39547;45.554;12.068;2022-10-22T00:51:06;17.10;83.40
53645;DHT22;39547;45.554;12.068;2022-10-22T00:57:08;17.10;83.40
53645;DHT22;39547;45.554;12.068;2022-10-22T01:03:10;17.10;83.40
53645;DHT22;39547;45.554;12.068;2022-10-22T01:09:32;17.10;83.40
53645;DHT22;39547;45.554;12.068;2022-10-22T01:34:54;17.10;83.50
53645;DHT22;39547;45.554;12.068;2022-10-22T01:40:57;17.20;83.60
53645;DHT22;39547;45.554;12.068;2022-10-22T01:53:48;17.20;83.60
53645;DHT22;39547;45.554;12.068;2022-10-22T02:00:05;17.20;83.70
53645;DHT22;39547;45.554;12.068;2022-10-22T02:06:13;17.20;83.60
53645;DHT22;39547;45.554;12.068;2022-10-22T02:12:19;17.20;83.70
53645;DHT22;39547;45.554;12.068;2022-10-22T02:18:24;17.30;83.90
53645;DHT22;39547;45.554;12.068;2022-10-22T02:24:28;17.20;83.90
53645;DHT22;39547;45.554;12.068;2022-10-22T02:30:30;17.30;83.90
53645;DHT22;39547;45.554;12.068;2022-10-22T02:36:33;17.30;84.00
53645;DHT22;39547;45.554;12.068;2022-10-22T02:42:35;17.30;84.00
53645;DHT22;39547;45.554;12.068;2022-10-22T02:48:38;17.30;84.00
53645;DHT22;39547;45.554;12.068;2022-10-22T02:54:39;17.30;84.00
53645;DHT22;39547;45.554;12.068;2022-10-22T03:00:41;17.30;84.00
53645;DHT22;39547;45.554;12.068;2022-10-22T03:06:42;17.30;84.00
53645;DHT22;39547;45.554;12.068;2022-10-22T03:12:44;17.30;84.20
53645;DHT22;39547;45.554;12.068;2022-10-22T03:18:46;17.30;84.10
53645;DHT22;39547;45.554;12.068;2022-10-22T03:24:50;17.30;84.20
53645;DHT22;39547;45.554;12.068;2022-10-22T03:30:53;17.30;84.20
53645;DHT22;39547;45.554;12.068;2022-10-22T03:37:04;17.30;84.30
53645;DHT22;39547;45.554;12.068;2022-10-22T03:43:06;17.30;84.30
53645;DHT22;39547;45.554;12.068;2022-10-22T03:49:08;17.30;84.50
53645;DHT22;39547;45.554;12.068;2022-10-22T03:55:09;17.30;84.50
53645;DHT22;39547;45.554;12.068;2022-10-22T04:01:12;17.30;84.50
53645;DHT22;39547;45.554;12.068;2022-10-22T04:07:13;17.40;84.50
53645;DHT22;39547;45.554;12.068;2022-10-22T04:13:15;17.30;84.60
53645;DHT22;39547;45.554;12.068;2022-10-22T04:19:16;17.30;84.70
53645;DHT22;39547;45.554;12.068;2022-10-22T04:25:18;17.30;84.70
53645;DHT22;39547;45.554;12.068;2022-10-22T04:31:22;17.30;84.70
53645;DHT22;39547;45.554;12.068;2022-10-22T04:37:23;17.30;84.70
53645;DHT22;39547;45.554;12.068;2022-10-22T04:43:25;17.30;84.80
53645;DHT22;39547;45.554;12.068;2022-10-22T04:49:27;17.30;84.80
53645;DHT22;39547;45.554;12.068;2022-10-22T04:55:28;17.30;84.80
53645;DHT22;39547;45.554;12.068;2022-10-22T05:01:35;17.40;84.80
53645;DHT22;39547;45.554;12.068;2022-10-22T05:07:37;17.40;84.90
53645;DHT22;39547;45.554;12.068;2022-10-22T05:13:38;17.40;85.00
53645;DHT22;39547;45.554;12.068;2022-10-22T05:19:40;17.30;85.00
53645;DHT22;39547;45.554;12.068;2022-10-22T05:25:41;17.40;85.00
53645;DHT22;39547;45.554;12.068;2022-10-22T05:31:42;17.30;85.10
53645;DHT22;39547;45.554;12.068;2022-10-22T05:37:44;17.40;85.00
53645;DHT22;39547;45.554;12.068;2022-10-22T05:43:45;17.30;85.30
53645;DHT22;39547;45.554;12.068;2022-10-22T05:49:47;17.40;85.20
53645;DHT22;39547;45.554;12.068;2022-10-22T05:55:49;17.40;85.30
53645;DHT22;39547;45.554;12.068;2022-10-22T06:01:50;17.40;85.30
53645;DHT22;39547;45.554;12.068;2022-10-22T06:07:52;17.40;85.30
53645;DHT22;39547;45.554;12.068;2022-10-22T06:13:53;17.50;85.30
53645;DHT22;39547;45.554;12.068;2022-10-22T06:19:55;17.50;85.40
53645;DHT22;39547;45.554;12.068;2022-10-22T06:25:57;17.50;85.40
53645;DHT22;39547;45.554;12.068;2022-10-22T06:31:59;17.50;85.70
53645;DHT22;39547;45.554;12.068;2022-10-22T06:38:00;17.50;86.00
53645;DHT22;39547;45.554;12.068;2022-10-22T06:44:02;17.50;85.90
53645;DHT22;39547;45.554;12.068;2022-10-22T06:50:04;17.50;86.10
53645;DHT22;39547;45.554;12.068;2022-10-22T06:56:11;17.50;86.60
53645;DHT22;39547;45.554;12.068;2022-10-22T07:02:13;17.60;86.90
53645;DHT22;39547;45.554;12.068;2022-10-22T07:08:14;17.70;86.50
53645;DHT22;39547;45.554;12.068;2022-10-22T07:14:15;17.70;86.40
53645;DHT22;39547;45.554;12.068;2022-10-22T07:20:18;17.80;86.60
53645;DHT22;39547;45.554;12.068;2022-10-22T07:26:21;17.90;86.30
53645;DHT22;39547;45.554;12.068;2022-10-22T07:32:24;18.00;86.40
53645;DHT22;39547;45.554;12.068;2022-10-22T07:38:27;18.00;86.20
53645;DHT22;39547;45.554;12.068;2022-10-22T07:44:28;18.10;86.20
53645;DHT22;39547;45.554;12.068;2022-10-22T07:50:30;18.10;86.20
53645;DHT22;39547;45.554;12.068;2022-10-22T07:56:31;18.20;86.20
53645;DHT22;39547;45.554;12.068;2022-10-22T08:02:32;18.20;86.10
53645;DHT22;39547;45.554;12.068;2022-10-22T08:08:34;18.40;86.10
53645;DHT22;39547;45.554;12.068;2022-10-22T08:14:35;18.60;85.90
53645;DHT22;39547;45.554;12.068;2022-10-22T08:20:37;18.70;85.90
53645;DHT22;39547;45.554;12.068;2022-10-22T08:26:39;18.80;85.80
53645;DHT22;39547;45.554;12.068;2022-10-22T08:32:41;18.90;85.60
53645;DHT22;39547;45.554;12.068;2022-10-22T08:38:42;18.90;85.60
53645;DHT22;39547;45.554;12.068;2022-10-22T08:44:59;18.90;85.60
53645;DHT22;39547;45.554;12.068;2022-10-22T08:51:03;19.00;85.70
53645;DHT22;39547;45.554;12.068;2022-10-22T09:09:41;19.30;85.60
53645;DHT22;39547;45.554;12.068;2022-10-22T09:15:46;19.60;85.70
53645;DHT22;39547;45.554;12.068;2022-10-22T09:27:59;20.00;84.80
53645;DHT22;39547;45.554;12.068;2022-10-22T09:34:01;19.90;84.60
53645;DHT22;39547;45.554;12.068;2022-10-22T09:40:13;19.80;84.70
53645;DHT22;39547;45.554;12.068;2022-10-22T09:46:23;19.80;85.00
53645;DHT22;39547;45.554;12.068;2022-10-22T09:52:27;20.00;84.80
53645;DHT22;39547;45.554;12.068;2022-10-22T09:58:44;20.20;84.70
53645;DHT22;39547;45.554;12.068;2022-10-22T10:04:49;20.30;84.30
53645;DHT22;39547;45.554;12.068;2022-10-22T10:17:17;20.60;83.50
53645;DHT22;39547;45.554;12.068;2022-10-22T10:42:42;21.20;82.70
53645;DHT22;39547;45.554;12.068;2022-10-22T10:48:54;21.30;82.10
53645;DHT22;39547;45.554;12.068;2022-10-22T11:01:17;21.10;81.80
53645;DHT22;39547;45.554;12.068;2022-10-22T11:07:30;21.00;81.80
53645;DHT22;39547;45.554;12.068;2022-10-22T11:14:12;21.10;81.80
53645;DHT22;39547;45.554;12.068;2022-10-22T11:26:56;21.20;80.50
53645;DHT22;39547;45.554;12.068;2022-10-22T11:33:02;20.90;80.90
53645;DHT22;39547;45.554;12.068;2022-10-22T11:39:04;20.70;81.20
53645;DHT22;39547;45.554;12.068;2022-10-22T11:51:32;20.50;81.60
53645;DHT22;39547;45.554;12.068;2022-10-22T11:57:36;20.60;81.90
53645;DHT22;39547;45.554;12.068;2022-10-22T12:03:53;20.40;81.50
53645;DHT22;39547;45.554;12.068;2022-10-22T12:10:21;20.40;82.00
53645;DHT22;39547;45.554;12.068;2022-10-22T12:16:27;20.10;82.70
53645;DHT22;39547;45.554;12.068;2022-10-22T12:22:32;19.90;83.50
53645;DHT22;39547;45.554;12.068;2022-10-22T12:28:40;19.70;84.00
53645;DHT22;39547;45.554;12.068;2022-10-22T12:34:51;19.50;84.50
53645;DHT22;39547;45.554;12.068;2022-10-22T12:40:55;19.30;85.00
53645;DHT22;39547;45.554;12.068;2022-10-22T12:46:57;19.00;85.90
53645;DHT22;39547;45.554;12.068;2022-10-22T12:52:58;18.90;86.30
53645;DHT22;39547;45.554;12.068;2022-10-22T12:59:24;18.80;86.70
53645;DHT22;39547;45.554;12.068;2022-10-22T13:05:29;18.70;87.20
53645;DHT22;39547;45.554;12.068;2022-10-22T13:11:40;18.60;87.60
53645;DHT22;39547;45.554;12.068;2022-10-22T13:17:42;18.60;87.90
53645;DHT22;39547;45.554;12.068;2022-10-22T13:23:54;18.50;88.00
53645;DHT22;39547;45.554;12.068;2022-10-22T13:30:15;18.40;89.10
53645;DHT22;39547;45.554;12.068;2022-10-22T13:36:17;18.30;89.90
53645;DHT22;39547;45.554;12.068;2022-10-22T13:42:19;18.30;90.10
53645;DHT22;39547;45.554;12.068;2022-10-22T13:48:22;18.30;90.40
53645;DHT22;39547;45.554;12.068;2022-10-22T13:54:25;18.30;90.50
53645;DHT22;39547;45.554;12.068;2022-10-22T14:00:27;18.30;90.80
53645;DHT22;39547;45.554;12.068;2022-10-22T14:06:30;18.40;90.80
53645;DHT22;39547;45.554;12.068;2022-10-22T14:12:32;18.60;90.90
53645;DHT22;39547;45.554;12.068;2022-10-22T14:18:34;18.70;90.90
53645;DHT22;39547;45.554;12.068;2022-10-22T14:24:36;18.70;90.90
53645;DHT22;39547;45.554;12.068;2022-10-22T14:30:38;18.70;91.00
53645;DHT22;39547;45.554;12.068;2022-10-22T14:36:40;18.70;91.10
53645;DHT22;39547;45.554;12.068;2022-10-22T14:42:45;18.80;91.20
53645;DHT22;39547;45.554;12.068;2022-10-22T14:48:47;18.90;91.10
53645;DHT22;39547;45.554;12.068;2022-10-22T14:54:48;18.80;90.90
53645;DHT22;39547;45.554;12.068;2022-10-22T15:00:50;18.70;90.90
53645;DHT22;39547;45.554;12.068;2022-10-22T15:06:51;18.60;91.00
53645;DHT22;39547;45.554;12.068;2022-10-22T15:12:56;18.50;91.00
53645;DHT22;39547;45.554;12.068;2022-10-22T15:18:57;18.40;91.00
53645;DHT22;39547;45.554;12.068;2022-10-22T15:25:05;18.30;90.90
53645;DHT22;39547;45.554;12.068;2022-10-22T15:31:09;18.30;91.00
53645;DHT22;39547;45.554;12.068;2022-10-22T15:37:12;18.20;91.00
53645;DHT22;39547;45.554;12.068;2022-10-22T15:43:14;18.20;91.00
53645;DHT22;39547;45.554;12.068;2022-10-22T15:49:16;18.10;91.00
53645;DHT22;39547;45.554;12.068;2022-10-22T15:55:18;18.10;91.00
53645;DHT22;39547;45.554;12.068;2022-10-22T16:01:20;18.00;91.10
53645;DHT22;39547;45.554;12.068;2022-10-22T16:07:21;17.90;91.10
53645;DHT22;39547;45.554;12.068;2022-10-22T16:13:22;17.90;91.20
53645;DHT22;39547;45.554;12.068;2022-10-22T16:19:25;17.80;91.20
53645;DHT22;39547;45.554;12.068;2022-10-22T16:25:26;17.80;91.20
53645;DHT22;39547;45.554;12.068;2022-10-22T16:31:28;17.70;91.20
53645;DHT22;39547;45.554;12.068;2022-10-22T16:37:29;17.70;91.20
53645;DHT22;39547;45.554;12.068;2022-10-22T16:43:31;17.60;91.30
53645;DHT22;39547;45.554;12.068;2022-10-22T16:49:32;17.50;91.30
53645;DHT22;39547;45.554;12.068;2022-10-22T16:55:38;17.50;91.30
53645;DHT22;39547;45.554;12.068;2022-10-22T17:01:39;17.50;91.30
53645;DHT22;39547;45.554;12.068;2022-10-22T17:07:41;17.30;91.30
53645;DHT22;39547;45.554;12.068;2022-10-22T17:13:44;17.30;91.40
53645;DHT22;39547;45.554;12.068;2022-10-22T17:19:45;17.30;91.40
53645;DHT22;39547;45.554;12.068;2022-10-22T17:25:47;17.30;91.40
53645;DHT22;39547;45.554;12.068;2022-10-22T17:31:48;17.20;91.40
53645;DHT22;39547;45.554;12.068;2022-10-22T17:37:50;17.20;91.40
53645;DHT22;39547;45.554;12.068;2022-10-22T17:43:53;17.20;91.40
53645;DHT22;39547;45.554;12.068;2022-10-22T17:49:55;17.20;91.40
53645;DHT22;39547;45.554;12.068;2022-10-22T17:56:02;17.00;91.40
53645;DHT22;39547;45.554;12.068;2022-10-22T18:02:04;17.00;91.40
53645;DHT22;39547;45.554;12.068;2022-10-22T18:08:05;16.90;91.40
53645;DHT22;39547;45.554;12.068;2022-10-22T18:14:07;16.90;91.40
53645;DHT22;39547;45.554;12.068;2022-10-22T18:20:09;16.80;91.50
53645;DHT22;39547;45.554;12.068;2022-10-22T18:26:11;16.80;91.50
53645;DHT22;39547;45.554;12.068;2022-10-22T18:32:13;16.80;91.50
53645;DHT22;39547;45.554;12.068;2022-10-22T18:38:14;16.80;91.50
53645;DHT22;39547;45.554;12.068;2022-10-22T18:44:16;16.70;91.50
53645;DHT22;39547;45.554;12.068;2022-10-22T18:50:18;16.70;91.50
53645;DHT22;39547;45.554;12.068;2022-10-22T18:56:19;16.70;91.50
53645;DHT22;39547;45.554;12.068;2022-10-22T19:02:21;16.70;91.40
53645;DHT22;39547;45.554;12.068;2022-10-22T19:08:22;16.60;91.50
53645;DHT22;39547;45.554;12.068;2022-10-22T19:14:24;16.60;91.50
53645;DHT22;39547;45.554;12.068;2022-10-22T19:20:26;16.50;91.50
53645;DHT22;39547;45.554;12.068;2022-10-22T19:26:29;16.50;91.50
53645;DHT22;39547;45.554;12.068;2022-10-22T19:32:30;16.50;91.50
53645;DHT22;39547;45.554;12.068;2022-10-22T19:38:32;16.40;91.50
53645;DHT22;39547;45.554;12.068;2022-10-22T19:44:34;16.40;91.50
53645;DHT22;39547;45.554;12.068;2022-10-22T19:50:35;16.40;91.50
53645;DHT22;39547;45.554;12.068;2022-10-22T19:56:38;16.40;91.50
53645;DHT22;39547;45.554;12.068;2022-10-22T20:02:41;16.40;91.50
53645;DHT22;39547;45.554;12.068;2022-10-22T20:08:43;16.30;91.50
53645;DHT22;39547;45.554;12.068;2022-10-22T20:14:45;16.30;91.50
53645;DHT22;39547;45.554;12.068;2022-10-22T20:20:47;16.20;91.40
53645;DHT22;39547;45.554;12.068;2022-10-22T20:26:48;16.20;91.50
53645;DHT22;39547;45.554;12.068;2022-10-22T20:32:49;16.20;91.40
53645;DHT22;39547;45.554;12.068;2022-10-22T20:38:51;16.20;91.60
53645;DHT22;39547;45.554;12.068;2022-10-22T20:44:53;16.20;91.60
53645;DHT22;39547;45.554;12.068;2022-10-22T20:50:54;16.20;91.60
53645;DHT22;39547;45.554;12.068;2022-10-22T20:56:56;16.20;91.70
53645;DHT22;39547;45.554;12.068;2022-10-22T21:02:58;16.20;91.60
53645;DHT22;39547;45.554;12.068;2022-10-22T21:08:59;16.30;91.60
53645;DHT22;39547;45.554;12.068;2022-10-22T21:15:02;16.30;91.60
53645;DHT22;39547;45.554;12.068;2022-10-22T21:21:04;16.30;91.60
53645;DHT22;39547;45.554;12.068;2022-10-22T21:27:06;16.30;91.60
53645;DHT22;39547;45.554;12.068;2022-10-22T21:33:08;16.30;91.50
53645;DHT22;39547;45.554;12.068;2022-10-22T21:39:09;16.30;91.60
53645;DHT22;39547;45.554;12.068;2022-10-22T21:45:12;16.30;91.60
53645;DHT22;39547;45.554;12.068;2022-10-22T21:51:18;16.30;91.60
53645;DHT22;39547;45.554;12.068;2022-10-22T21:57:20;16.30;91.60
53645;DHT22;39547;45.554;12.068;2022-10-22T22:03:22;16.30;91.60
53645;DHT22;39547;45.554;12.068;2022-10-22T22:09:23;16.30;91.60
53645;DHT22;39547;45.554;12.068;2022-10-22T22:15:25;16.40;91.60
53645;DHT22;39547;45.554;12.068;2022-10-22T22:21:27;16.40;91.60
53645;DHT22;39547;45.554;12.068;2022-10-22T22:27:28;16.40;91.60
53645;DHT22;39547;45.554;12.068;2022-10-22T22:33:29;16.40;91.60
53645;DHT22;39547;45.554;12.068;2022-10-22T22:39:31;16.40;91.50
53645;DHT22;39547;45.554;12.068;2022-10-22T22:45:32;16.30;91.50
53645;DHT22;39547;45.554;12.068;2022-10-22T22:51:34;16.30;91.50
53645;DHT22;39547;45.554;12.068;2022-10-22T22:57:35;16.30;91.60
53645;DHT22;39547;45.554;12.068;2022-10-22T23:03:37;16.30;91.60
53645;DHT22;39547;45.554;12.068;2022-10-22T23:09:38;16.20;91.60
53645;DHT22;39547;45.554;12.068;2022-10-22T23:15:40;16.20;91.50
53645;DHT22;39547;45.554;12.068;2022-10-22T23:21:46;16.20;91.60
53645;DHT22;39547;45.554;12.068;2022-10-22T23:27:48;16.20;91.50
53645;DHT22;39547;45.554;12.068;2022-10-22T23:33:50;16.20;91.40
53645;DHT22;39547;45.554;12.068;2022-10-22T23:39:51;16.10;91.40
53645;DHT22;39547;45.554;12.068;2022-10-22T23:45:52;16.00;91.40
53645;DHT22;39547;45.554;12.068;2022-10-22T23:51:54;16.10;91.60
53645;DHT22;39547;45.554;12.068;2022-10-22T23:57:55;16.10;91.60
